createdAt,value
2023-01-17T00:02:16.931Z,98658.75
2023-01-17T00:05:02.810Z,98686.91
2023-01-17T00:07:49.166Z,98658.84
2023-01-17T00:10:20.184Z,98673.63
2023-01-17T00:12:50.283Z,98698.78
2023-01-17T00:15:20.326Z,98673.09
2023-01-17T00:17:50.718Z,98704.47
2023-01-17T00:20:54.622Z,98645.56
2023-01-17T00:23:42.738Z,98675.19
2023-01-17T00:26:14.332Z,98703.91
2023-01-17T00:28:43.340Z,98663.19
2023-01-17T00:31:13.184Z,98659.91
2023-01-17T00:33:41.850Z,98694.63
2023-01-17T00:36:10.822Z,98678.91
2023-01-17T00:38:39.802Z,98712.56
2023-01-17T00:41:09.599Z,98683.22
2023-01-17T00:43:55.928Z,98690.09
2023-01-17T00:46:41.738Z,98687.53
2023-01-17T00:49:28.875Z,98698.00
2023-01-17T00:52:14.762Z,98694.47
2023-01-17T00:55:00.672Z,98694.59
2023-01-17T00:57:46.583Z,98710.91
2023-01-17T01:00:33.444Z,98678.75
2023-01-17T01:03:19.742Z,98690.84
2023-01-17T01:06:07.090Z,98720.09
2023-01-17T01:08:53.242Z,98722.69
2023-01-17T01:11:40.114Z,98714.00
2023-01-17T01:14:29.137Z,98731.19
2023-01-17T01:17:15.088Z,98734.69
2023-01-17T01:20:01.093Z,98741.59
2023-01-17T01:22:48.225Z,98679.03
2023-01-17T01:25:33.992Z,98732.81
2023-01-17T01:28:24.757Z,98748.50
2023-01-17T01:31:10.517Z,98754.47
2023-01-17T01:33:39.296Z,98787.22
2023-01-17T01:36:10.011Z,98782.41
2023-01-17T01:38:40.408Z,98803.25
2023-01-17T01:41:09.101Z,98797.16
2023-01-17T01:43:47.463Z,98804.78
2023-01-17T01:46:21.972Z,98802.44
2023-01-17T01:48:56.078Z,98801.47
2023-01-17T01:51:30.746Z,98790.41
2023-01-17T01:54:08.289Z,98799.44
2023-01-17T01:56:37.469Z,98794.44
2023-01-17T01:59:09.971Z,98772.78
2023-01-17T02:01:38.894Z,98793.38
2023-01-17T02:04:10.129Z,98768.97
2023-01-17T02:06:44.756Z,98789.00
2023-01-17T02:09:17.217Z,98786.16
2023-01-17T02:11:47.911Z,98780.88
2023-01-17T02:14:17.550Z,98801.53
2023-01-17T02:17:02.236Z,98815.25
2023-01-17T02:20:01.297Z,98790.13
2023-01-17T02:23:15.562Z,98735.16
2023-01-17T02:26:28.886Z,98807.94
2023-01-17T02:29:25.995Z,98774.94
2023-01-17T02:32:01.357Z,98812.94
2023-01-17T02:34:39.379Z,98779.06
2023-01-17T02:37:16.344Z,98792.13
2023-01-17T02:39:54.729Z,98814.59
2023-01-17T02:42:30.813Z,98766.88
2023-01-17T02:44:59.234Z,98758.28
2023-01-17T02:47:31.360Z,98771.38
2023-01-17T02:50:05.076Z,98805.38
2023-01-17T02:52:53.747Z,98808.66
2023-01-17T02:55:38.086Z,98753.91
2023-01-17T02:58:24.705Z,98788.47
2023-01-17T03:01:04.828Z,98795.41
2023-01-17T03:03:46.258Z,98792.72
2023-01-17T03:06:21.120Z,98789.19
2023-01-17T03:08:52.007Z,98818.84
2023-01-17T03:11:20.605Z,98767.06
2023-01-17T03:13:49.174Z,98813.03
2023-01-17T03:16:22.377Z,98837.38
2023-01-17T03:18:53.836Z,98839.38
2023-01-17T03:21:23.711Z,98796.75
2023-01-17T03:23:52.455Z,98756.03
2023-01-17T03:26:20.869Z,98809.88
2023-01-17T03:28:49.399Z,98839.34
2023-01-17T03:31:19.907Z,98796.53
2023-01-17T03:33:48.476Z,98820.84
2023-01-17T03:36:20.346Z,98839.13
2023-01-17T03:38:48.751Z,98838.91
2023-01-17T03:41:17.248Z,98780.72
2023-01-17T03:43:45.645Z,98841.31
2023-01-17T03:46:22.737Z,98758.78
2023-01-17T03:48:51.429Z,98838.03
2023-01-17T03:51:21.670Z,98792.84
2023-01-17T03:53:50.730Z,98827.59
2023-01-17T03:56:20.102Z,98805.16
2023-01-17T03:58:48.596Z,98835.31
2023-01-17T04:01:17.257Z,98797.19
2023-01-17T04:03:45.698Z,98848.34
2023-01-17T04:06:14.017Z,98815.47
2023-01-17T04:08:43.728Z,98831.88
2023-01-17T04:11:12.067Z,98849.28
2023-01-17T04:13:40.395Z,98857.81
2023-01-17T04:16:14.564Z,98815.34
2023-01-17T04:18:43.275Z,98844.16
2023-01-17T04:21:11.861Z,98849.06
2023-01-17T04:23:40.317Z,98854.28
2023-01-17T04:26:12.911Z,98847.31
2023-01-17T04:28:41.301Z,98858.31
2023-01-17T04:31:15.262Z,98852.25
2023-01-17T04:33:44.224Z,98795.91
2023-01-17T04:36:13.127Z,98820.03
2023-01-17T04:38:41.736Z,98856.28
2023-01-17T04:41:11.633Z,98837.19
2023-01-17T04:43:40.104Z,98821.59
2023-01-17T04:46:10.967Z,98849.44
2023-01-17T04:48:39.411Z,98860.72
2023-01-17T04:51:08.012Z,98864.22
2023-01-17T04:53:36.607Z,98870.31
2023-01-17T04:56:05.847Z,98865.31
2023-01-17T04:58:36.040Z,98858.34
2023-01-17T05:01:04.934Z,98858.94
2023-01-17T05:03:34.304Z,98832.88
2023-01-17T05:06:03.159Z,98818.06
2023-01-17T05:08:31.508Z,98848.50
2023-01-17T05:11:00.097Z,98870.19
2023-01-17T05:13:28.524Z,98872.84
2023-01-17T05:15:59.546Z,98878.03
2023-01-17T05:18:28.044Z,98866.03
2023-01-17T05:21:01.628Z,98832.31
2023-01-17T05:23:30.127Z,98875.09
2023-01-17T05:25:58.613Z,98873.19
2023-01-17T05:28:30.016Z,98888.75
2023-01-17T05:30:59.931Z,98848.94
2023-01-17T05:33:28.320Z,98892.38
2023-01-17T05:35:56.912Z,98831.78
2023-01-17T05:38:25.448Z,98864.69
2023-01-17T05:40:54.279Z,98844.06
2023-01-17T05:43:22.900Z,98895.19
2023-01-17T05:45:51.447Z,98890.94
2023-01-17T05:48:21.711Z,98898.88
2023-01-17T05:50:50.350Z,98897.00
2023-01-17T05:53:19.241Z,98877.06
2023-01-17T05:55:47.788Z,98892.59
2023-01-17T05:58:19.824Z,98850.81
2023-01-17T06:00:48.916Z,98890.81
2023-01-17T06:03:18.386Z,98894.25
2023-01-17T06:05:48.258Z,98805.66
2023-01-17T06:08:17.144Z,98866.25
2023-01-17T06:10:45.749Z,98882.63
2023-01-17T06:13:20.951Z,98887.84
2023-01-17T06:15:50.144Z,98894.78
2023-01-17T06:18:19.665Z,98898.06
2023-01-17T06:20:55.146Z,98885.13
2023-01-17T06:23:25.664Z,98841.69
2023-01-17T06:25:54.396Z,98884.13
2023-01-17T06:28:24.052Z,98864.88
2023-01-17T06:30:52.585Z,98870.13
2023-01-17T06:33:21.116Z,98891.63
2023-01-17T06:35:52.754Z,98890.03
2023-01-17T06:38:22.087Z,98855.25
2023-01-17T06:40:50.547Z,98889.13
2023-01-17T06:43:19.083Z,98858.84
2023-01-17T06:45:49.832Z,98892.75
2023-01-17T06:48:19.598Z,98877.13
2023-01-17T06:50:49.755Z,98887.34
2023-01-17T06:53:19.654Z,98879.97
2023-01-17T06:55:48.017Z,98876.34
2023-01-17T06:58:16.453Z,98888.56
2023-01-17T07:00:45.032Z,98902.38
2023-01-17T07:03:21.128Z,98881.53
2023-01-17T07:05:50.259Z,98910.94
2023-01-17T07:08:21.040Z,98906.31
2023-01-17T07:10:49.878Z,98888.81
2023-01-17T07:13:18.303Z,98912.22
2023-01-17T07:15:46.718Z,98881.75
2023-01-17T07:18:20.554Z,98925.03
2023-01-17T07:20:49.138Z,98924.81
2023-01-17T07:23:20.016Z,98910.91
2023-01-17T07:25:53.667Z,98856.16
2023-01-17T07:28:22.974Z,98903.56
2023-01-17T07:30:53.126Z,98928.94
2023-01-17T07:33:22.507Z,98909.97
2023-01-17T07:35:51.087Z,98921.50
2023-01-17T07:38:21.794Z,98925.88
2023-01-17T07:40:50.254Z,98876.91
2023-01-17T07:43:18.683Z,98927.38
2023-01-17T07:45:50.548Z,98917.31
2023-01-17T07:48:20.335Z,98918.31
2023-01-17T07:50:55.106Z,98879.44
2023-01-17T07:53:26.999Z,98931.41
2023-01-17T07:55:55.878Z,98865.47
2023-01-17T07:58:24.452Z,98908.81
2023-01-17T08:00:53.328Z,98921.94
2023-01-17T08:03:21.806Z,98930.63
2023-01-17T08:05:57.796Z,98895.13
2023-01-17T08:08:27.545Z,98925.56
2023-01-17T08:10:56.338Z,98942.88
2023-01-17T08:13:25.101Z,98884.88
2023-01-17T08:15:54.692Z,98942.25
2023-01-17T08:18:23.284Z,98937.88
2023-01-17T08:20:51.664Z,98925.84
2023-01-17T08:23:20.192Z,98939.81
2023-01-17T08:25:51.164Z,98876.09
2023-01-17T08:28:19.852Z,98953.28
2023-01-17T08:30:48.443Z,98952.50
2023-01-17T08:33:17.529Z,98953.44
2023-01-17T08:35:53.626Z,98950.63
2023-01-17T08:38:23.830Z,98909.66
2023-01-17T08:40:56.222Z,98934.72
2023-01-17T08:43:25.005Z,98904.28
2023-01-17T08:45:56.007Z,98931.78
2023-01-17T08:48:27.307Z,98970.00
2023-01-17T08:50:56.553Z,98861.34
2023-01-17T08:53:25.066Z,98967.50
2023-01-17T08:56:01.341Z,98967.59
2023-01-17T08:58:32.177Z,98940.66
2023-01-17T09:01:03.452Z,98948.59
2023-01-17T09:03:33.300Z,98963.59
2023-01-17T09:06:06.984Z,98922.75
2023-01-17T09:08:36.680Z,98964.66
2023-01-17T09:11:08.284Z,98958.66
2023-01-17T09:13:37.216Z,98947.53
2023-01-17T09:16:07.463Z,98924.88
2023-01-17T09:18:37.582Z,98958.03
2023-01-17T09:21:18.254Z,98951.03
2023-01-17T09:23:47.202Z,98946.66
2023-01-17T09:26:23.510Z,98959.00
2023-01-17T09:28:52.859Z,98938.19
2023-01-17T09:31:24.536Z,98947.22
2023-01-17T09:33:54.486Z,98967.41
2023-01-17T09:36:23.921Z,98956.03
2023-01-17T09:38:58.802Z,98950.88
2023-01-17T09:41:32.594Z,98974.38
2023-01-17T09:44:11.357Z,98957.25
2023-01-17T09:46:43.745Z,98954.66
2023-01-17T09:49:21.067Z,98990.38
2023-01-17T09:51:49.678Z,98987.94
2023-01-17T09:54:24.985Z,98971.72
2023-01-17T09:57:04.296Z,98990.91
2023-01-17T09:59:45.741Z,98990.00
2023-01-17T10:02:45.311Z,98997.69
2023-01-17T10:05:43.299Z,98992.59
2023-01-17T10:08:30.945Z,98958.06
2023-01-17T10:11:27.132Z,98976.28
2023-01-17T10:14:21.185Z,98973.59
2023-01-17T10:16:56.211Z,98993.44
2023-01-17T10:19:44.951Z,98971.72
2023-01-17T10:23:05.816Z,98997.69
2023-01-17T10:25:44.546Z,99007.94
2023-01-17T10:28:18.308Z,99013.88
2023-01-17T10:30:51.421Z,98985.31
2023-01-17T10:33:29.686Z,99010.50
2023-01-17T10:36:00.580Z,98981.97
2023-01-17T10:38:36.107Z,99012.19
2023-01-17T10:41:09.992Z,99008.91
2023-01-17T10:43:47.551Z,99009.06
2023-01-17T10:46:28.528Z,99002.13
2023-01-17T10:48:58.550Z,98994.53
2023-01-17T10:52:02.092Z,98991.34
2023-01-17T10:54:54.734Z,98989.88
2023-01-17T10:57:27.096Z,98966.56
2023-01-17T11:00:01.589Z,98994.44
2023-01-17T11:02:35.419Z,98981.50
2023-01-17T11:05:17.256Z,98995.50
2023-01-17T11:07:59.348Z,98989.44
2023-01-17T11:10:42.777Z,98950.38
2023-01-17T11:13:30.047Z,98996.22
2023-01-17T11:16:02.343Z,98995.44
2023-01-17T11:18:36.059Z,98985.72
2023-01-17T11:21:13.410Z,98993.72
2023-01-17T11:23:45.271Z,98994.47
2023-01-17T11:26:30.634Z,98964.91
2023-01-17T11:29:29.662Z,98990.97
2023-01-17T11:31:58.497Z,98968.50
2023-01-17T11:34:33.061Z,98991.69
2023-01-17T11:37:18.136Z,98992.53
2023-01-17T11:39:48.594Z,98991.69
2023-01-17T11:42:34.793Z,98975.09
2023-01-17T11:45:28.364Z,98988.22
2023-01-17T11:48:18.536Z,98957.00
2023-01-17T11:50:57.712Z,98960.53
2023-01-17T11:53:30.276Z,98932.75
2023-01-17T11:56:05.243Z,98985.88
2023-01-17T11:58:36.784Z,98985.09
2023-01-17T12:01:35.170Z,98964.44
2023-01-17T12:04:25.402Z,98980.06
2023-01-17T12:07:19.011Z,98974.19
2023-01-17T12:09:58.487Z,98946.53
2023-01-17T12:12:56.752Z,98969.19
2023-01-17T12:15:40.244Z,98952.84
2023-01-17T12:18:33.536Z,98957.22
2023-01-17T12:21:18.620Z,98953.72
2023-01-17T12:24:27.776Z,98945.88
2023-01-17T12:27:04.783Z,98941.59
2023-01-17T12:29:49.485Z,98932.97
2023-01-17T12:32:53.136Z,98914.06
2023-01-17T12:35:31.074Z,98941.88
2023-01-17T12:38:07.282Z,98924.53
2023-01-17T12:40:49.616Z,98896.09
2023-01-17T12:43:24.927Z,98927.41
2023-01-17T12:45:55.931Z,98918.69
2023-01-17T12:48:30.950Z,98889.25
2023-01-17T12:51:05.691Z,98884.94
2023-01-17T12:53:41.652Z,98878.06
2023-01-17T12:56:22.559Z,98874.66
2023-01-17T12:58:56.613Z,98905.84
2023-01-17T13:01:31.523Z,98877.25
2023-01-17T13:04:12.827Z,98894.59
2023-01-17T13:06:55.786Z,98885.91
2023-01-17T13:09:26.348Z,98831.38
2023-01-17T13:12:04.392Z,98816.69
2023-01-17T13:14:33.543Z,98864.31
2023-01-17T13:17:14.686Z,98902.41
2023-01-17T13:19:51.893Z,98892.03
2023-01-17T13:22:23.074Z,98894.63
2023-01-17T13:25:05.659Z,98869.50
2023-01-17T13:28:02.947Z,98866.91
2023-01-17T13:31:03.972Z,98900.69
2023-01-17T13:33:53.008Z,98888.53
2023-01-17T13:36:42.792Z,98900.69
2023-01-17T13:39:36.093Z,98888.56
2023-01-17T13:42:19.370Z,98888.53
2023-01-17T13:44:49.465Z,98889.44
2023-01-17T13:47:42.841Z,98899.81
2023-01-17T13:50:51.194Z,98877.31
2023-01-17T13:53:49.428Z,98888.56
2023-01-17T13:56:31.285Z,98874.69
2023-01-17T13:59:34.583Z,98894.59
2023-01-17T14:02:04.568Z,98857.38
2023-01-17T14:05:09.326Z,98863.47
2023-01-17T14:07:45.969Z,98872.97
2023-01-17T14:10:33.694Z,98898.06
2023-01-17T14:13:04.224Z,98862.56
2023-01-17T14:15:36.406Z,98881.59
2023-01-17T14:18:08.261Z,98891.09
2023-01-17T14:21:05.348Z,98902.41
2023-01-17T14:24:03.857Z,98888.56
2023-01-17T14:26:46.831Z,98863.47
2023-01-17T14:29:49.767Z,98879.91
2023-01-17T14:32:22.330Z,98866.91
2023-01-17T14:34:53.623Z,98908.47
2023-01-17T14:37:34.678Z,98895.44
2023-01-17T14:40:03.539Z,98881.63
2023-01-17T14:42:34.240Z,98900.69
2023-01-17T14:45:07.998Z,98714.66
2023-01-17T14:47:39.820Z,98851.34
2023-01-17T14:50:22.106Z,98903.28
2023-01-17T14:53:16.839Z,98877.31
2023-01-17T14:56:01.019Z,98897.22
2023-01-17T14:58:31.895Z,98905.03
2023-01-17T15:01:03.688Z,98898.09
2023-01-17T15:03:42.887Z,98872.97
2023-01-17T15:06:20.603Z,98883.38
2023-01-17T15:08:51.854Z,98905.00
2023-01-17T15:11:24.180Z,98885.97
2023-01-17T15:13:57.527Z,98916.25
2023-01-17T15:16:28.583Z,98921.44
2023-01-17T15:18:58.692Z,98904.13
2023-01-17T15:21:32.244Z,98929.25
2023-01-17T15:24:04.269Z,98912.81
2023-01-17T15:26:37.514Z,98898.94
2023-01-17T15:29:08.749Z,98872.06
2023-01-17T15:31:43.997Z,98924.00
2023-01-17T15:34:26.899Z,98932.66
2023-01-17T15:36:59.245Z,98930.03
2023-01-17T15:39:31.121Z,98874.50
2023-01-17T15:42:02.857Z,98889.16
2023-01-17T15:44:47.507Z,98902.97
2023-01-17T15:47:30.130Z,98873.47
2023-01-17T15:50:00.002Z,98913.34
2023-01-17T15:52:30.480Z,98941.03
2023-01-17T15:55:14.746Z,98912.25
2023-01-17T15:57:48.655Z,98914.78
2023-01-17T16:00:28.268Z,98920.81
2023-01-17T16:02:58.889Z,98943.31
2023-01-17T16:05:43.711Z,98914.63
2023-01-17T16:08:33.356Z,98920.63
2023-01-17T16:11:06.306Z,98911.78
2023-01-17T16:13:37.876Z,98945.50
2023-01-17T16:16:16.324Z,98923.56
2023-01-17T16:18:46.535Z,98962.50
2023-01-17T16:21:22.379Z,98945.84
2023-01-17T16:23:52.902Z,98970.91
2023-01-17T16:26:21.670Z,98947.34
2023-01-17T16:28:50.715Z,98923.81
2023-01-17T16:31:19.950Z,98967.13
2023-01-17T16:33:51.737Z,98978.22
2023-01-17T16:36:21.539Z,98934.69
2023-01-17T16:38:53.204Z,98921.50
2023-01-17T16:41:22.260Z,98978.69
2023-01-17T16:44:01.078Z,98930.84
2023-01-17T16:46:31.076Z,98947.16
2023-01-17T16:49:02.225Z,98985.19
2023-01-17T16:51:30.960Z,98978.19
2023-01-17T16:54:01.531Z,98979.69
2023-01-17T16:56:30.019Z,98980.44
2023-01-17T16:58:58.530Z,98966.38
2023-01-17T17:01:27.028Z,98995.69
2023-01-17T17:03:55.519Z,98999.00
2023-01-17T17:06:24.109Z,98979.53
2023-01-17T17:08:52.522Z,99005.50
2023-01-17T17:11:24.595Z,99007.09
2023-01-17T17:13:53.985Z,99013.06
2023-01-17T17:16:26.488Z,98991.13
2023-01-17T17:19:00.152Z,98995.25
2023-01-17T17:21:30.263Z,99014.34
2023-01-17T17:24:01.210Z,99029.94
2023-01-17T17:26:34.478Z,99030.69
2023-01-17T17:29:06.909Z,98961.03
2023-01-17T17:31:35.585Z,99044.28
2023-01-17T17:34:07.368Z,99021.53
2023-01-17T17:36:36.455Z,99018.78
2023-01-17T17:39:09.364Z,99034.28
2023-01-17T17:41:43.776Z,99060.09
2023-01-17T17:44:12.517Z,99026.84
2023-01-17T17:46:42.249Z,99055.44
2023-01-17T17:49:10.774Z,99039.66
2023-01-17T17:51:41.530Z,99057.78
2023-01-17T17:54:12.371Z,99072.63
2023-01-17T17:56:46.533Z,99080.22
2023-01-17T17:59:18.424Z,99043.66
2023-01-17T18:01:47.663Z,99076.53
2023-01-17T18:04:16.109Z,99074.66
2023-01-17T18:06:45.514Z,99063.00
2023-01-17T18:09:14.731Z,99055.56
2023-01-17T18:11:45.688Z,99081.84
2023-01-17T18:14:17.027Z,99099.34
2023-01-17T18:16:47.147Z,99062.53
2023-01-17T18:19:18.696Z,99107.63
2023-01-17T18:21:48.599Z,99109.34
2023-01-17T18:24:18.933Z,99095.13
2023-01-17T18:26:50.541Z,99083.75
2023-01-17T18:29:21.499Z,99127.19
2023-01-17T18:31:52.236Z,99113.06
2023-01-17T18:34:24.086Z,99118.16
2023-01-17T18:36:53.038Z,99141.41
2023-01-17T18:39:24.465Z,99119.38
2023-01-17T18:41:55.073Z,99120.13
2023-01-17T18:44:24.394Z,99146.97
2023-01-17T18:46:54.441Z,99150.34
2023-01-17T18:49:22.998Z,99163.25
2023-01-17T18:51:51.848Z,99167.47
2023-01-17T18:54:21.982Z,99131.75
2023-01-17T18:56:51.156Z,99173.53
2023-01-17T18:59:23.568Z,99175.22
2023-01-17T19:01:52.211Z,99181.88
2023-01-17T19:04:21.764Z,99181.72
2023-01-17T19:06:50.212Z,99150.47
2023-01-17T19:09:19.516Z,99184.56
2023-01-17T19:11:47.995Z,99187.03
2023-01-17T19:14:16.526Z,99152.97
2023-01-17T19:16:46.496Z,99191.44
2023-01-17T19:19:16.685Z,99192.28
2023-01-17T19:21:45.675Z,99203.28
2023-01-17T19:24:14.338Z,99185.19
2023-01-17T19:26:43.205Z,99183.00
2023-01-17T19:29:12.465Z,99191.91
2023-01-17T19:31:43.591Z,99169.56
2023-01-17T19:34:15.983Z,99198.31
2023-01-17T19:36:44.556Z,99195.34
2023-01-17T19:39:13.245Z,99203.78
2023-01-17T19:41:44.557Z,99180.28
2023-01-17T19:44:15.634Z,99162.91
2023-01-17T19:46:46.052Z,99212.28
2023-01-17T19:49:19.750Z,99181.81
2023-01-17T19:51:49.547Z,99208.91
2023-01-17T19:54:18.247Z,99212.53
2023-01-17T19:56:46.601Z,99209.06
2023-01-17T19:59:15.100Z,99210.59
2023-01-17T20:01:43.633Z,99212.31
2023-01-17T20:04:12.785Z,99209.53
2023-01-17T20:06:42.869Z,99211.34
2023-01-17T20:09:14.217Z,99210.47
2023-01-17T20:11:43.177Z,99216.28
2023-01-17T20:14:15.238Z,99211.97
2023-01-17T20:16:44.892Z,99203.25
2023-01-17T20:19:13.292Z,99221.66
2023-01-17T20:21:43.284Z,99219.06
2023-01-17T20:24:13.584Z,99223.19
2023-01-17T20:26:44.054Z,99216.38
2023-01-17T20:29:15.714Z,99179.53
2023-01-17T20:31:45.839Z,99190.00
2023-01-17T20:34:18.674Z,99224.84
2023-01-17T20:36:48.845Z,99220.25
2023-01-17T20:39:18.027Z,99217.81
2023-01-17T20:41:46.638Z,99193.22
2023-01-17T20:44:16.548Z,99188.50
2023-01-17T20:46:45.558Z,99204.16
2023-01-17T20:49:16.173Z,99228.59
2023-01-17T20:51:45.527Z,99197.22
2023-01-17T20:54:17.799Z,99202.16
2023-01-17T20:56:48.026Z,99190.75
2023-01-17T20:59:18.921Z,99195.25
2023-01-17T21:01:47.419Z,99233.59
2023-01-17T21:04:16.701Z,99190.56
2023-01-17T21:06:45.571Z,99230.50
2023-01-17T21:09:17.292Z,99238.38
2023-01-17T21:11:45.862Z,99245.34
2023-01-17T21:14:14.691Z,99241.03
2023-01-17T21:16:43.606Z,99243.59
2023-01-17T21:19:15.989Z,99238.38
2023-01-17T21:21:44.405Z,99244.25
2023-01-17T21:24:18.716Z,99197.22
2023-01-17T21:26:49.593Z,99237.22
2023-01-17T21:29:18.176Z,99247.75
2023-01-17T21:31:46.584Z,99231.84
2023-01-17T21:34:15.254Z,99212.53
2023-01-17T21:36:44.530Z,99230.06
2023-01-17T21:39:17.165Z,99246.66
2023-01-17T21:41:48.270Z,99234.50
2023-01-17T21:44:20.252Z,99199.00
2023-01-17T21:46:53.611Z,99240.88
2023-01-17T21:49:23.767Z,99246.94
2023-01-17T21:52:09.768Z,99247.13
2023-01-17T21:54:56.939Z,99190.56
2023-01-17T21:57:42.746Z,99217.47
2023-01-17T22:00:15.508Z,99207.91
2023-01-17T22:02:44.688Z,99224.63
2023-01-17T22:05:13.926Z,99207.22
2023-01-17T22:08:02.784Z,99228.09
2023-01-17T22:10:32.941Z,99232.78
2023-01-17T22:13:01.386Z,99243.91
2023-01-17T22:15:29.900Z,99218.47
2023-01-17T22:17:58.874Z,99211.28
2023-01-17T22:20:30.111Z,99231.59
2023-01-17T22:22:58.919Z,99247.25
2023-01-17T22:25:27.576Z,99230.41
2023-01-17T22:27:57.599Z,99246.78
2023-01-17T22:30:26.186Z,99261.47
2023-01-17T22:32:57.137Z,99217.97
2023-01-17T22:35:27.022Z,99211.06
2023-01-17T22:37:55.481Z,99234.28
2023-01-17T22:40:24.078Z,99232.53
2023-01-17T22:42:52.392Z,99213.91
2023-01-17T22:45:22.141Z,99260.28
2023-01-17T22:47:50.515Z,99258.44
2023-01-17T22:50:19.329Z,99264.69
2023-01-17T22:52:47.745Z,99242.75
2023-01-17T22:55:16.203Z,99264.44
2023-01-17T22:57:47.077Z,99218.19
2023-01-17T23:00:17.033Z,99243.78
2023-01-17T23:02:46.823Z,99230.56
2023-01-17T23:05:15.272Z,99264.50
2023-01-17T23:07:46.620Z,99268.94
2023-01-17T23:10:38.149Z,99267.09
2023-01-17T23:13:10.451Z,99208.44
2023-01-17T23:15:57.222Z,99244.41
2023-01-17T23:18:44.868Z,99271.19
2023-01-17T23:21:13.319Z,99272.16
2023-01-17T23:23:41.710Z,99238.19
2023-01-17T23:26:10.047Z,99268.81
2023-01-17T23:28:37.538Z,99274.72
2023-01-17T23:31:06.825Z,99274.72
2023-01-17T23:33:36.744Z,99269.53
2023-01-17T23:36:09.317Z,99244.03
2023-01-17T23:38:40.769Z,99251.06
2023-01-17T23:41:28.431Z,99248.28
2023-01-17T23:43:58.705Z,99234.44
2023-01-17T23:46:30.267Z,99270.97
2023-01-17T23:49:00.199Z,99230.88
2023-01-17T23:51:30.320Z,99274.31
2023-01-17T23:54:05.299Z,99274.31
2023-01-17T23:56:34.376Z,99237.44
2023-01-17T23:59:04.500Z,99274.19
